createdAt,value
2022-08-05T00:00:26.210Z,100341.87
2022-08-05T00:03:15.730Z,100340.03
2022-08-05T00:06:05.003Z,100340.73
2022-08-05T00:08:40.333Z,100342.31
2022-08-05T00:11:30.179Z,100343.87
2022-08-05T00:14:11.965Z,100342.20
2022-08-05T00:16:52.670Z,100342.23
2022-08-05T00:19:40.611Z,100334.20
2022-08-05T00:22:17.908Z,100338.06
2022-08-05T00:24:55.184Z,100336.61
2022-08-05T00:27:36.290Z,100336.34
2022-08-05T00:30:11.540Z,100330.84
2022-08-05T00:32:45.021Z,100335.81
2022-08-05T00:35:20.404Z,100338.29
2022-08-05T00:37:53.983Z,100337.19
2022-08-05T00:40:29.404Z,100331.63
2022-08-05T00:43:07.649Z,100329.51
2022-08-05T00:45:43.756Z,100326.16
2022-08-05T00:48:18.572Z,100327.41
2022-08-05T00:51:08.836Z,100324.92
2022-08-05T00:54:02.814Z,100327.55
2022-08-05T00:56:35.098Z,100323.87
2022-08-05T00:59:08.706Z,100326.75
2022-08-05T01:01:42.928Z,100324.98
2022-08-05T01:04:27.028Z,100322.84
2022-08-05T01:07:02.151Z,100319.30
2022-08-05T01:09:37.347Z,100322.09
2022-08-05T01:12:18.881Z,100317.66
2022-08-05T01:14:58.315Z,100314.15
2022-08-05T01:17:39.962Z,100312.75
2022-08-05T01:20:20.525Z,100312.08
2022-08-05T01:23:15.397Z,100311.67
2022-08-05T01:26:13.849Z,100310.52
2022-08-05T01:28:52.503Z,100307.98
2022-08-05T01:31:29.123Z,100303.73
2022-08-05T01:34:08.515Z,100301.29
2022-08-05T01:36:46.988Z,100300.95
2022-08-05T01:39:45.525Z,100297.19
2022-08-05T01:42:16.155Z,100296.45
2022-08-05T01:44:54.165Z,100296.03
2022-08-05T01:47:39.019Z,100296.00
2022-08-05T01:50:17.350Z,100296.55
2022-08-05T01:52:54.329Z,100294.09
2022-08-05T01:55:29.317Z,100291.95
2022-08-05T01:58:10.132Z,100293.58
2022-08-05T02:00:51.425Z,100288.50
2022-08-05T02:03:31.436Z,100287.55
2022-08-05T02:06:33.687Z,100282.35
2022-08-05T02:09:00.377Z,100277.26
2022-08-05T02:11:52.474Z,100278.91
2022-08-05T02:14:32.023Z,100280.75
2022-08-05T02:17:16.989Z,100281.88
2022-08-05T02:20:05.811Z,100282.77
2022-08-05T02:22:41.750Z,100284.40
2022-08-05T02:25:19.398Z,100280.75
2022-08-05T02:27:58.911Z,100275.11
2022-08-05T02:30:51.804Z,100276.07
2022-08-05T02:33:38.369Z,100272.14
2022-08-05T02:36:15.644Z,100273.08
2022-08-05T02:38:53.277Z,100270.46
2022-08-05T02:41:42.975Z,100267.15
2022-08-05T02:44:23.055Z,100268.59
2022-08-05T02:47:00.239Z,100265.00
2022-08-05T02:49:37.765Z,100265.80
2022-08-05T02:52:25.775Z,100261.61
2022-08-05T02:55:05.424Z,100261.94
2022-08-05T02:58:19.849Z,100259.65
2022-08-05T03:00:37.796Z,100258.59
2022-08-05T03:03:12.846Z,100258.66
2022-08-05T03:06:56.474Z,100254.10
2022-08-05T03:08:42.827Z,100257.61
2022-08-05T03:11:54.694Z,100251.79
2022-08-05T03:14:14.920Z,100249.27
2022-08-05T03:16:46.788Z,100248.98
2022-08-05T03:19:33.544Z,100250.30
2022-08-05T03:22:16.212Z,100247.09
2022-08-05T03:24:51.069Z,100245.61
2022-08-05T03:27:39.193Z,100249.24
2022-08-05T03:30:13.300Z,100248.02
2022-08-05T03:32:46.158Z,100244.73
2022-08-05T03:35:18.418Z,100249.16
2022-08-05T03:37:50.727Z,100241.47
2022-08-05T03:40:32.428Z,100240.18
2022-08-05T03:43:15.898Z,100237.88
2022-08-05T03:45:58.814Z,100240.01
2022-08-05T03:48:35.637Z,100236.39
2022-08-05T03:52:48.981Z,100238.95
2022-08-05T03:56:01.492Z,100238.23
2022-08-05T03:57:16.660Z,100241.65
2022-08-05T03:59:56.723Z,100242.36
2022-08-05T04:02:37.635Z,100241.70
2022-08-05T04:05:13.670Z,100242.88
2022-08-05T04:07:57.543Z,100236.41
2022-08-05T04:10:37.702Z,100234.71
2022-08-05T04:13:10.423Z,100236.61
2022-08-05T04:16:03.026Z,100235.96
2022-08-05T04:18:35.328Z,100236.48
2022-08-05T04:21:08.048Z,100239.64
2022-08-05T04:24:05.906Z,100240.45
2022-08-05T04:26:35.769Z,100235.52
2022-08-05T04:29:07.788Z,100237.17
2022-08-05T04:31:40.536Z,100231.61
2022-08-05T04:34:19.236Z,100235.30
2022-08-05T04:37:04.338Z,100229.91
2022-08-05T04:39:36.642Z,100227.20
2022-08-05T04:42:11.027Z,100232.55
2022-08-05T04:44:43.277Z,100230.50
2022-08-05T04:47:20.048Z,100226.19
2022-08-05T04:50:01.320Z,100228.98
2022-08-05T04:52:34.505Z,100227.01
2022-08-05T04:55:14.145Z,100225.52
2022-08-05T04:57:54.032Z,100228.04
2022-08-05T05:00:29.253Z,100228.98
2022-08-05T05:03:03.923Z,100226.73
2022-08-05T05:06:35.997Z,100228.34
2022-08-05T05:08:30.434Z,100230.17
2022-08-05T05:11:02.349Z,100230.34
2022-08-05T05:13:43.071Z,100228.74
2022-08-05T05:16:16.090Z,100228.88
2022-08-05T05:19:16.451Z,100229.17
2022-08-05T05:21:43.836Z,100228.80
2022-08-05T05:24:19.517Z,100229.69
2022-08-05T05:26:51.985Z,100228.21
2022-08-05T05:29:24.383Z,100227.77
2022-08-05T05:32:16.165Z,100222.33
2022-08-05T05:34:52.304Z,100223.70
2022-08-05T05:37:37.306Z,100223.80
2022-08-05T05:40:20.102Z,100222.94
2022-08-05T05:42:52.325Z,100223.74
2022-08-05T05:45:23.047Z,100220.66
2022-08-05T05:48:06.725Z,100224.83
2022-08-05T05:50:44.399Z,100226.64
2022-08-05T05:53:21.600Z,100222.91
2022-08-05T05:56:01.008Z,100223.41
2022-08-05T05:58:35.127Z,100219.52
2022-08-05T06:01:15.238Z,100222.01
2022-08-05T06:04:01.342Z,100224.05
2022-08-05T06:06:35.297Z,100225.02
2022-08-05T06:09:08.055Z,100220.33
2022-08-05T06:11:39.796Z,100223.85
2022-08-05T06:14:11.574Z,100223.55
2022-08-05T06:16:43.164Z,100225.31
2022-08-05T06:19:26.268Z,100226.48
2022-08-05T06:22:08.109Z,100230.16
2022-08-05T06:24:48.141Z,100231.13
2022-08-05T06:28:11.816Z,100230.20
2022-08-05T06:30:16.786Z,100234.21
2022-08-05T06:32:51.565Z,100233.55
2022-08-05T06:36:03.626Z,100234.96
2022-08-05T06:38:16.143Z,100230.44
2022-08-05T06:40:48.111Z,100227.19
2022-08-05T06:43:58.137Z,100224.59
2022-08-05T06:46:13.060Z,100226.75
2022-08-05T06:48:55.409Z,100226.24
2022-08-05T06:51:29.772Z,100224.27
2022-08-05T06:54:03.600Z,100223.20
2022-08-05T06:56:35.986Z,100223.26
2022-08-05T06:59:09.910Z,100221.92
2022-08-05T07:01:44.322Z,100217.73
2022-08-05T07:04:19.260Z,100217.02
2022-08-05T07:06:51.627Z,100215.42
2022-08-05T07:09:24.953Z,100211.89
2022-08-05T07:12:00.414Z,100210.12
2022-08-05T07:14:50.612Z,100207.73
2022-08-05T07:18:01.239Z,100198.60
2022-08-05T07:20:33.015Z,100202.08
2022-08-05T07:23:06.529Z,100205.36
2022-08-05T07:25:56.442Z,100206.16
2022-08-05T07:28:29.214Z,100207.83
2022-08-05T07:31:01.671Z,100206.65
2022-08-05T07:33:36.949Z,100204.08
2022-08-05T07:36:20.609Z,100204.84
2022-08-05T07:38:54.692Z,100206.64
2022-08-05T07:42:13.302Z,100201.91
2022-08-05T07:44:19.659Z,100199.91
2022-08-05T07:46:52.197Z,100199.89
2022-08-05T07:49:25.704Z,100201.90
2022-08-05T07:51:58.866Z,100201.83
2022-08-05T07:54:33.625Z,100201.92
2022-08-05T07:57:51.307Z,100204.52
2022-08-05T08:00:11.368Z,100207.55
2022-08-05T08:03:14.525Z,100211.27
2022-08-05T08:05:47.254Z,100211.91
2022-08-05T08:08:21.808Z,100213.13
2022-08-05T08:10:55.611Z,100212.59
2022-08-05T08:13:29.048Z,100210.96
2022-08-05T08:16:34.353Z,100209.77
2022-08-05T08:18:53.190Z,100210.09
2022-08-05T08:21:24.884Z,100208.95
2022-08-05T08:24:02.310Z,100202.33
2022-08-05T08:26:36.807Z,100201.13
2022-08-05T08:29:45.291Z,100197.33
2022-08-05T08:32:06.379Z,100195.93
2022-08-05T08:34:42.872Z,100190.65
2022-08-05T08:37:14.599Z,100193.82
2022-08-05T08:39:50.676Z,100189.75
2022-08-05T08:42:34.361Z,100190.52
2022-08-05T08:45:27.135Z,100191.82
2022-08-05T08:48:22.533Z,100189.80
2022-08-05T08:51:07.676Z,100186.52
2022-08-05T08:53:50.921Z,100189.09
2022-08-05T08:56:27.004Z,100187.39
2022-08-05T08:59:00.069Z,100183.73
2022-08-05T09:01:32.866Z,100179.73
2022-08-05T09:04:05.237Z,100177.84
2022-08-05T09:06:43.109Z,100180.55
2022-08-05T09:09:16.431Z,100184.70
2022-08-05T09:11:51.548Z,100187.05
2022-08-05T09:14:56.769Z,100181.21
2022-08-05T09:17:42.942Z,100182.24
2022-08-05T09:20:11.899Z,100181.76
2022-08-05T09:23:21.923Z,100179.36
2022-08-05T09:26:08.552Z,100178.05
2022-08-05T09:28:42.096Z,100175.08
2022-08-05T09:31:43.748Z,100179.65
2022-08-05T09:34:10.495Z,100170.42
2022-08-05T09:36:54.351Z,100169.02
2022-08-05T09:39:45.225Z,100165.81
2022-08-05T09:42:24.417Z,100165.10
2022-08-05T09:45:17.570Z,100167.06
2022-08-05T09:47:58.728Z,100160.33
2022-08-05T09:50:45.191Z,100160.67
2022-08-05T09:53:22.775Z,100163.08
2022-08-05T09:56:03.770Z,100159.36
2022-08-05T09:58:37.149Z,100156.68
2022-08-05T10:01:31.530Z,100152.52
2022-08-05T10:04:10.478Z,100152.33
2022-08-05T10:06:58.647Z,100154.05
2022-08-05T10:09:45.105Z,100149.29
2022-08-05T10:12:30.006Z,100148.54
2022-08-05T10:15:25.590Z,100142.50
2022-08-05T10:18:10.355Z,100143.48
2022-08-05T10:20:48.302Z,100139.29
2022-08-05T10:23:50.979Z,100133.83
2022-08-05T10:26:15.407Z,100128.60
2022-08-05T10:28:46.764Z,100125.86
2022-08-05T10:32:51.032Z,100119.23
2022-08-05T10:34:12.291Z,100116.98
2022-08-05T10:36:46.541Z,100119.26
2022-08-05T10:39:59.366Z,100118.02
2022-08-05T10:42:32.275Z,100119.84
2022-08-05T10:45:21.410Z,100118.67
2022-08-05T10:48:31.020Z,100116.51
2022-08-05T10:51:21.788Z,100115.05
2022-08-05T10:54:17.062Z,100117.91
2022-08-05T10:56:53.461Z,100121.14
2022-08-05T11:00:04.249Z,100119.37
2022-08-05T11:02:37.679Z,100117.64
2022-08-05T11:05:12.124Z,100121.55
2022-08-05T11:08:04.768Z,100116.95
2022-08-05T11:10:50.354Z,100115.27
2022-08-05T11:13:55.105Z,100112.98
2022-08-05T11:16:47.540Z,100111.30
2022-08-05T11:20:16.773Z,100104.89
2022-08-05T11:22:44.736Z,100110.27
2022-08-05T11:26:04.761Z,100101.60
2022-08-05T11:28:46.539Z,100102.55
2022-08-05T11:31:57.908Z,100095.64
2022-08-05T11:34:51.709Z,100092.48
2022-08-05T11:38:28.239Z,100092.48
2022-08-05T11:41:12.766Z,100096.95
2022-08-05T11:44:07.428Z,100095.21
2022-08-05T11:47:09.252Z,100093.09
2022-08-05T11:49:33.797Z,100099.23
2022-08-05T11:52:11.584Z,100100.05
2022-08-05T11:54:48.468Z,100098.69
2022-08-05T11:58:08.186Z,100095.80
2022-08-05T12:00:30.894Z,100096.94
2022-08-05T12:03:23.797Z,100096.61
2022-08-05T12:06:09.926Z,100091.91
2022-08-05T12:08:49.997Z,100087.74
2022-08-05T12:11:28.239Z,100085.36
2022-08-05T12:14:12.468Z,100087.29
2022-08-05T12:16:46.488Z,100083.77
2022-08-05T12:20:25.514Z,100083.77
2022-08-05T12:22:17.949Z,100082.17
2022-08-05T12:24:53.700Z,100080.27
2022-08-05T12:27:27.334Z,100081.08
2022-08-05T12:30:09.015Z,100078.17
2022-08-05T12:32:51.166Z,100079.35
2022-08-05T12:35:24.877Z,100077.01
2022-08-05T12:38:11.962Z,100073.63
2022-08-05T12:40:47.197Z,100067.71
2022-08-05T12:43:20.700Z,100066.02
2022-08-05T12:45:57.559Z,100062.98
2022-08-05T12:48:39.014Z,100063.53
2022-08-05T12:52:10.760Z,100065.50
2022-08-05T12:54:14.858Z,100059.31
2022-08-05T12:56:52.819Z,100052.81
2022-08-05T12:59:46.913Z,100053.26
2022-08-05T13:02:30.294Z,100062.91
2022-08-05T13:05:06.894Z,100059.98
2022-08-05T13:07:59.805Z,100056.64
2022-08-05T13:10:34.081Z,100056.78
2022-08-05T13:13:09.063Z,100056.86
2022-08-05T13:15:50.901Z,100060.88
2022-08-05T13:18:24.096Z,100052.27
2022-08-05T13:20:56.059Z,100050.26
2022-08-05T13:23:27.895Z,100046.15
2022-08-05T13:26:01.135Z,100040.48
2022-08-05T13:28:33.394Z,100036.70
2022-08-05T13:31:14.284Z,100037.73
2022-08-05T13:34:21.195Z,100038.42
2022-08-05T13:36:39.226Z,100027.55
2022-08-05T13:40:12.878Z,100028.95
2022-08-05T13:42:05.902Z,100029.73
2022-08-05T13:44:40.956Z,100027.04
2022-08-05T13:47:34.919Z,100018.19
2022-08-05T13:50:12.399Z,100012.82
2022-08-05T13:52:50.055Z,100017.48
2022-08-05T13:55:41.896Z,100017.50
2022-08-05T13:58:30.257Z,100015.27
2022-08-05T14:01:02.911Z,100017.04
2022-08-05T14:03:35.917Z,100010.01
2022-08-05T14:06:25.826Z,100004.64
2022-08-05T14:08:59.433Z,100002.79
2022-08-05T14:11:31.939Z,100004.77
2022-08-05T14:14:23.124Z,100003.79
2022-08-05T14:16:57.467Z,100008.36
2022-08-05T14:19:30.133Z,100005.64
2022-08-05T14:22:24.652Z,99997.66
2022-08-05T14:25:06.413Z,100001.70
2022-08-05T14:27:53.482Z,99998.02
2022-08-05T14:30:26.720Z,99994.37
2022-08-05T14:33:00.061Z,100004.35
2022-08-05T14:35:36.950Z,99997.70
2022-08-05T14:38:33.333Z,99987.00
2022-08-05T14:41:08.517Z,99987.92
2022-08-05T14:44:02.297Z,99990.81
2022-08-05T14:46:35.089Z,99992.62
2022-08-05T14:49:08.569Z,99995.27
2022-08-05T14:51:43.218Z,99993.45
2022-08-05T14:54:30.132Z,99995.72
2022-08-05T14:57:13.460Z,99986.90
2022-08-05T14:59:45.387Z,99984.58
2022-08-05T15:02:17.412Z,99981.80
2022-08-05T15:04:49.871Z,99988.10
2022-08-05T15:08:10.743Z,99984.81
2022-08-05T15:10:13.534Z,99980.45
2022-08-05T15:13:00.343Z,99974.86
2022-08-05T15:15:55.050Z,99975.39
2022-08-05T15:18:25.257Z,99967.63
2022-08-05T15:20:57.262Z,99965.17
2022-08-05T15:23:40.002Z,99965.70
2022-08-05T15:26:12.651Z,99966.87
2022-08-05T15:28:43.055Z,99967.13
2022-08-05T15:31:15.263Z,99959.94
2022-08-05T15:34:18.397Z,99959.34
2022-08-05T15:36:38.737Z,99957.76
2022-08-05T15:40:59.098Z,99952.84
2022-08-05T15:42:02.657Z,99953.63
2022-08-05T15:44:55.027Z,99956.41
2022-08-05T15:47:26.984Z,99954.69
2022-08-05T15:49:59.484Z,99950.00
2022-08-05T15:52:53.963Z,99948.61
2022-08-05T15:56:02.706Z,99948.42
2022-08-05T15:58:17.438Z,99961.38
2022-08-05T16:00:50.673Z,99977.70
2022-08-05T16:03:36.318Z,99994.26
2022-08-05T16:06:13.249Z,99997.48
2022-08-05T16:08:44.888Z,100013.19
2022-08-05T16:11:17.001Z,100018.11
2022-08-05T16:13:49.458Z,100024.15
2022-08-05T16:16:25.490Z,100020.09
2022-08-05T16:18:57.719Z,100025.84
2022-08-05T16:22:00.619Z,100032.13
2022-08-05T16:24:39.715Z,100032.27
2022-08-05T16:27:15.782Z,100041.73
2022-08-05T16:29:50.992Z,100047.02
2022-08-05T16:32:28.383Z,100055.55
2022-08-05T16:35:01.626Z,100054.52
2022-08-05T16:38:03.378Z,100062.66
2022-08-05T16:40:29.093Z,100067.36
2022-08-05T16:43:01.531Z,100075.75
2022-08-05T16:46:06.296Z,100087.92
2022-08-05T16:48:33.458Z,100087.30
2022-08-05T16:51:09.860Z,100088.30
2022-08-05T16:54:03.383Z,100094.32
2022-08-05T16:56:36.355Z,100099.02
2022-08-05T16:59:10.206Z,100107.06
2022-08-05T17:01:53.909Z,100125.06
2022-08-05T17:04:30.738Z,100128.29
2022-08-05T17:07:03.568Z,100131.79
2022-08-05T17:09:58.435Z,100141.92
2022-08-05T17:12:51.219Z,100150.06
2022-08-05T17:15:23.213Z,100169.21
2022-08-05T17:18:01.375Z,100185.92
2022-08-05T17:20:33.208Z,100190.93
2022-08-05T17:23:05.053Z,100195.46
2022-08-05T17:25:39.877Z,100202.56
2022-08-05T17:28:15.477Z,100213.41
2022-08-05T17:30:50.542Z,100218.69
2022-08-05T17:33:24.279Z,100218.23
2022-08-05T17:36:07.300Z,100214.61
2022-08-05T17:38:41.966Z,100200.46
2022-08-05T17:42:16.926Z,100189.19
2022-08-05T17:44:06.478Z,100184.26
2022-08-05T17:46:43.112Z,100192.83
2022-08-05T17:49:17.997Z,100193.72
2022-08-05T17:51:50.246Z,100195.12
2022-08-05T17:54:23.639Z,100195.91
2022-08-05T17:56:55.339Z,100197.95
2022-08-05T17:59:30.395Z,100203.19
2022-08-05T18:02:02.857Z,100199.33
2022-08-05T18:04:51.261Z,100200.98
2022-08-05T18:07:25.513Z,100201.82
2022-08-05T18:10:08.794Z,100202.63
2022-08-05T18:12:42.438Z,100202.20
2022-08-05T18:15:14.678Z,100211.14
2022-08-05T18:17:58.890Z,100219.01
2022-08-05T18:20:34.537Z,100221.90
2022-08-05T18:23:11.514Z,100231.88
2022-08-05T18:25:45.525Z,100234.55
2022-08-05T18:28:18.149Z,100233.52
2022-08-05T18:30:53.910Z,100232.89
2022-08-05T18:33:27.497Z,100236.14
2022-08-05T18:36:17.510Z,100243.41
2022-08-05T18:38:51.221Z,100244.46
2022-08-05T18:41:56.161Z,100240.45
2022-08-05T18:44:33.295Z,100245.49
2022-08-05T18:47:08.138Z,100250.85
2022-08-05T18:50:01.436Z,100249.05
2022-08-05T18:52:36.221Z,100256.95
2022-08-05T18:55:11.736Z,100260.60
2022-08-05T18:57:52.718Z,100259.35
2022-08-05T19:00:29.150Z,100260.30
2022-08-05T19:03:03.786Z,100260.70
2022-08-05T19:06:12.056Z,100262.91
2022-08-05T19:08:31.256Z,100264.77
2022-08-05T19:11:04.680Z,100274.30
2022-08-05T19:13:39.318Z,100287.06
2022-08-05T19:16:25.394Z,100284.46
2022-08-05T19:19:01.124Z,100284.27
2022-08-05T19:21:34.761Z,100299.17
2022-08-05T19:24:12.893Z,100298.89
2022-08-05T19:26:55.187Z,100295.27
2022-08-05T19:29:36.006Z,100301.57
2022-08-05T19:32:11.240Z,100308.40
2022-08-05T19:34:55.059Z,100310.16
2022-08-05T19:37:34.939Z,100306.79
2022-08-05T19:40:19.530Z,100311.56
2022-08-05T19:43:05.558Z,100313.69
2022-08-05T19:45:39.399Z,100320.02
2022-08-05T19:48:26.329Z,100324.08
2022-08-05T19:50:58.431Z,100322.63
2022-08-05T19:54:04.307Z,100320.19
2022-08-05T19:56:32.705Z,100320.02
2022-08-05T19:59:51.516Z,100323.71
2022-08-05T20:02:01.434Z,100322.36
2022-08-05T20:04:35.377Z,100315.49
2022-08-05T20:07:10.230Z,100311.42
2022-08-05T20:09:53.753Z,100317.87
2022-08-05T20:12:27.355Z,100322.05
2022-08-05T20:14:59.380Z,100333.38
2022-08-05T20:17:32.455Z,100335.73
2022-08-05T20:20:11.346Z,100335.27
2022-08-05T20:22:46.736Z,100333.77
2022-08-05T20:25:18.746Z,100334.40
2022-08-05T20:27:55.085Z,100330.67
2022-08-05T20:30:30.333Z,100335.39
2022-08-05T20:33:02.191Z,100337.77
2022-08-05T20:35:34.034Z,100345.85
2022-08-05T20:38:20.051Z,100353.56
2022-08-05T20:40:56.419Z,100355.76
2022-08-05T20:43:57.473Z,100347.70
2022-08-05T20:46:24.996Z,100352.50
2022-08-05T20:48:57.422Z,100360.41
2022-08-05T20:51:29.593Z,100369.88
2022-08-05T20:54:03.709Z,100374.88
2022-08-05T20:56:42.261Z,100374.67
2022-08-05T20:59:26.325Z,100382.14
2022-08-05T21:01:59.092Z,100381.27
2022-08-05T21:04:32.686Z,100386.69
2022-08-05T21:07:04.415Z,100393.73
2022-08-05T21:09:36.186Z,100390.67
2022-08-05T21:12:11.999Z,100392.55
2022-08-05T21:14:49.098Z,100396.80
2022-08-05T21:17:21.499Z,100400.14
2022-08-05T21:19:53.183Z,100400.19
2022-08-05T21:22:26.876Z,100395.23
2022-08-05T21:25:00.642Z,100394.67
2022-08-05T21:27:38.657Z,100397.50
2022-08-05T21:30:17.475Z,100399.95
2022-08-05T21:32:49.692Z,100408.48
2022-08-05T21:35:29.724Z,100415.98
2022-08-05T21:38:03.035Z,100422.90
2022-08-05T21:40:35.418Z,100434.69
2022-08-05T21:43:08.221Z,100440.65
2022-08-05T21:45:56.291Z,100438.45
2022-08-05T21:48:31.812Z,100444.30
2022-08-05T21:51:03.865Z,100442.23
2022-08-05T21:53:56.831Z,100449.73
2022-08-05T21:56:35.712Z,100454.83
2022-08-05T21:59:22.716Z,100459.40
2022-08-05T22:01:56.969Z,100466.32
2022-08-05T22:04:28.744Z,100475.19
2022-08-05T22:06:59.544Z,100479.59
2022-08-05T22:09:45.434Z,100482.64
2022-08-05T22:12:18.345Z,100489.62
2022-08-05T22:14:58.712Z,100493.46
2022-08-05T22:17:31.746Z,100498.32
2022-08-05T22:20:16.306Z,100498.33
2022-08-05T22:23:16.783Z,100499.31
2022-08-05T22:26:10.150Z,100499.26
2022-08-05T22:28:43.452Z,100504.55
2022-08-05T22:31:17.119Z,100505.08
2022-08-05T22:33:57.456Z,100508.78
2022-08-05T22:36:30.084Z,100506.02
2022-08-05T22:39:04.370Z,100497.74
2022-08-05T22:42:09.771Z,100505.04
2022-08-05T22:44:33.170Z,100500.02
2022-08-05T22:47:06.573Z,100497.59
2022-08-05T22:50:21.666Z,100507.05
2022-08-05T22:52:34.373Z,100511.67
2022-08-05T22:55:18.309Z,100523.55
2022-08-05T22:57:52.325Z,100527.70
2022-08-05T23:00:23.495Z,100527.73
2022-08-05T23:02:56.164Z,100532.02
2022-08-05T23:05:29.847Z,100527.29
2022-08-05T23:08:07.788Z,100526.24
2022-08-05T23:10:43.337Z,100521.46
2022-08-05T23:13:14.925Z,100512.95
2022-08-05T23:15:46.522Z,100511.36
2022-08-05T23:18:22.923Z,100516.88
2022-08-05T23:20:54.940Z,100519.88
2022-08-05T23:23:29.900Z,100519.33
2022-08-05T23:26:05.627Z,100526.47
2022-08-05T23:28:37.333Z,100533.17
2022-08-05T23:31:17.150Z,100538.03
2022-08-05T23:34:05.583Z,100545.31
2022-08-05T23:36:44.336Z,100555.17
2022-08-05T23:39:31.982Z,100563.85
2022-08-05T23:42:04.927Z,100569.17
2022-08-05T23:44:40.489Z,100571.75
2022-08-05T23:47:16.258Z,100574.79
2022-08-05T23:49:48.748Z,100583.55
2022-08-05T23:52:31.668Z,100577.53
2022-08-05T23:55:05.567Z,100573.81
2022-08-05T23:57:39.800Z,100581.13
